sensor_id;sensor_type;location;lat;lon;timestamp;P1;durP1;ratioP1;P2;durP2;ratioP2
5662;SDS011;2854;42.692;23.364;2022-12-18T00:00:39;7.97;;;3.67;;
5662;SDS011;2854;42.692;23.364;2022-12-18T00:03:04;3.53;;;3.23;;
5662;SDS011;2854;42.692;23.364;2022-12-18T00:05:30;3.80;;;3.53;;
5662;SDS011;2854;42.692;23.364;2022-12-18T00:07:55;3.70;;;3.30;;
5662;SDS011;2854;42.692;23.364;2022-12-18T00:10:20;6.47;;;3.43;;
5662;SDS011;2854;42.692;23.364;2022-12-18T00:12:45;5.33;;;3.50;;
5662;SDS011;2854;42.692;23.364;2022-12-18T00:15:11;4.60;;;3.70;;
5662;SDS011;2854;42.692;23.364;2022-12-18T00:17:36;4.43;;;2.63;;
5662;SDS011;2854;42.692;23.364;2022-12-18T00:20:01;4.10;;;3.70;;
5662;SDS011;2854;42.692;23.364;2022-12-18T00:22:26;3.47;;;3.17;;
5662;SDS011;2854;42.692;23.364;2022-12-18T00:24:52;3.50;;;3.30;;
5662;SDS011;2854;42.692;23.364;2022-12-18T00:27:17;3.10;;;2.90;;
5662;SDS011;2854;42.692;23.364;2022-12-18T00:29:42;5.40;;;3.07;;
5662;SDS011;2854;42.692;23.364;2022-12-18T00:32:07;4.33;;;3.93;;
5662;SDS011;2854;42.692;23.364;2022-12-18T00:34:33;6.73;;;3.67;;
5662;SDS011;2854;42.692;23.364;2022-12-18T00:36:58;3.77;;;3.47;;
5662;SDS011;2854;42.692;23.364;2022-12-18T00:39:23;4.67;;;4.30;;
5662;SDS011;2854;42.692;23.364;2022-12-18T00:41:48;3.80;;;3.53;;
5662;SDS011;2854;42.692;23.364;2022-12-18T00:44:32;3.80;;;3.50;;
5662;SDS011;2854;42.692;23.364;2022-12-18T00:46:57;3.37;;;3.10;;
5662;SDS011;2854;42.692;23.364;2022-12-18T00:49:22;6.20;;;3.53;;
5662;SDS011;2854;42.692;23.364;2022-12-18T00:51:48;7.53;;;3.77;;
5662;SDS011;2854;42.692;23.364;2022-12-18T00:54:13;5.20;;;3.90;;
5662;SDS011;2854;42.692;23.364;2022-12-18T00:56:39;3.17;;;2.87;;
5662;SDS011;2854;42.692;23.364;2022-12-18T00:59:04;2.77;;;2.60;;
5662;SDS011;2854;42.692;23.364;2022-12-18T01:01:30;5.23;;;4.13;;
5662;SDS011;2854;42.692;23.364;2022-12-18T01:03:55;3.43;;;2.67;;
5662;SDS011;2854;42.692;23.364;2022-12-18T01:06:20;4.80;;;3.90;;
5662;SDS011;2854;42.692;23.364;2022-12-18T01:08:46;6.00;;;3.23;;
5662;SDS011;2854;42.692;23.364;2022-12-18T01:11:13;3.10;;;2.80;;
5662;SDS011;2854;42.692;23.364;2022-12-18T01:13:39;7.13;;;3.70;;
5662;SDS011;2854;42.692;23.364;2022-12-18T01:16:04;2.97;;;2.47;;
5662;SDS011;2854;42.692;23.364;2022-12-18T01:18:30;4.60;;;3.60;;
5662;SDS011;2854;42.692;23.364;2022-12-18T01:20:55;8.00;;;3.57;;
5662;SDS011;2854;42.692;23.364;2022-12-18T01:23:20;5.73;;;3.60;;
5662;SDS011;2854;42.692;23.364;2022-12-18T01:25:46;7.07;;;3.70;;
5662;SDS011;2854;42.692;23.364;2022-12-18T01:28:11;4.10;;;3.70;;
5662;SDS011;2854;42.692;23.364;2022-12-18T01:30:36;5.07;;;2.90;;
5662;SDS011;2854;42.692;23.364;2022-12-18T01:33:03;10.07;;;3.93;;
5662;SDS011;2854;42.692;23.364;2022-12-18T01:35:29;4.77;;;3.80;;
5662;SDS011;2854;42.692;23.364;2022-12-18T01:37:54;3.07;;;2.80;;
5662;SDS011;2854;42.692;23.364;2022-12-18T01:40:20;5.77;;;3.60;;
5662;SDS011;2854;42.692;23.364;2022-12-18T01:42:48;5.03;;;3.83;;
5662;SDS011;2854;42.692;23.364;2022-12-18T01:52:39;4.90;;;4.40;;
5662;SDS011;2854;42.692;23.364;2022-12-18T01:55:06;14.20;;;5.23;;
5662;SDS011;2854;42.692;23.364;2022-12-18T01:57:31;4.97;;;3.93;;
5662;SDS011;2854;42.692;23.364;2022-12-18T01:59:59;6.60;;;4.60;;
5662;SDS011;2854;42.692;23.364;2022-12-18T02:02:26;3.80;;;3.20;;
5662;SDS011;2854;42.692;23.364;2022-12-18T02:04:52;8.93;;;4.10;;
5662;SDS011;2854;42.692;23.364;2022-12-18T02:10:03;3.97;;;3.63;;
5662;SDS011;2854;42.692;23.364;2022-12-18T02:12:38;4.33;;;2.73;;
5662;SDS011;2854;42.692;23.364;2022-12-18T02:15:07;4.83;;;3.50;;
5662;SDS011;2854;42.692;23.364;2022-12-18T02:27:45;4.47;;;3.17;;
5662;SDS011;2854;42.692;23.364;2022-12-18T02:30:11;6.17;;;3.47;;
5662;SDS011;2854;42.692;23.364;2022-12-18T02:32:40;4.10;;;2.80;;
5662;SDS011;2854;42.692;23.364;2022-12-18T02:35:10;4.23;;;2.77;;
5662;SDS011;2854;42.692;23.364;2022-12-18T02:37:35;4.77;;;3.80;;
5662;SDS011;2854;42.692;23.364;2022-12-18T02:40:02;2.93;;;2.73;;
5662;SDS011;2854;42.692;23.364;2022-12-18T02:42:28;3.70;;;2.93;;
5662;SDS011;2854;42.692;23.364;2022-12-18T02:44:53;2.90;;;2.70;;
5662;SDS011;2854;42.692;23.364;2022-12-18T02:47:20;3.67;;;3.30;;
5662;SDS011;2854;42.692;23.364;2022-12-18T02:52:31;3.10;;;2.87;;
5662;SDS011;2854;42.692;23.364;2022-12-18T02:57:33;3.60;;;2.63;;
5662;SDS011;2854;42.692;23.364;2022-12-18T03:00:43;6.63;;;3.37;;
5662;SDS011;2854;42.692;23.364;2022-12-18T03:02:50;8.60;;;3.37;;
5662;SDS011;2854;42.692;23.364;2022-12-18T03:05:17;3.50;;;2.87;;
5662;SDS011;2854;42.692;23.364;2022-12-18T03:07:52;3.80;;;3.40;;
5662;SDS011;2854;42.692;23.364;2022-12-18T03:10:19;4.33;;;2.70;;
5662;SDS011;2854;42.692;23.364;2022-12-18T03:12:47;3.70;;;3.20;;
5662;SDS011;2854;42.692;23.364;2022-12-18T03:17:43;7.30;;;3.07;;
5662;SDS011;2854;42.692;23.364;2022-12-18T03:20:13;3.17;;;2.60;;
5662;SDS011;2854;42.692;23.364;2022-12-18T03:22:39;3.30;;;2.90;;
5662;SDS011;2854;42.692;23.364;2022-12-18T03:25:07;7.70;;;4.10;;
5662;SDS011;2854;42.692;23.364;2022-12-18T03:27:35;7.40;;;3.40;;
5662;SDS011;2854;42.692;23.364;2022-12-18T03:30:05;6.70;;;3.20;;
5662;SDS011;2854;42.692;23.364;2022-12-18T03:32:37;6.83;;;4.63;;
5662;SDS011;2854;42.692;23.364;2022-12-18T03:35:03;5.43;;;3.30;;
5662;SDS011;2854;42.692;23.364;2022-12-18T03:37:29;5.47;;;3.77;;
5662;SDS011;2854;42.692;23.364;2022-12-18T03:39:55;3.10;;;2.80;;
5662;SDS011;2854;42.692;23.364;2022-12-18T03:44:51;3.23;;;2.87;;
5662;SDS011;2854;42.692;23.364;2022-12-18T03:49:51;6.30;;;3.90;;
5662;SDS011;2854;42.692;23.364;2022-12-18T03:52:20;4.47;;;3.97;;
5662;SDS011;2854;42.692;23.364;2022-12-18T03:54:47;3.03;;;2.73;;
5662;SDS011;2854;42.692;23.364;2022-12-18T03:57:14;5.43;;;3.33;;
5662;SDS011;2854;42.692;23.364;2022-12-18T03:59:40;5.80;;;3.80;;
5662;SDS011;2854;42.692;23.364;2022-12-18T04:02:06;5.10;;;4.03;;
5662;SDS011;2854;42.692;23.364;2022-12-18T04:04:33;4.03;;;3.63;;
5662;SDS011;2854;42.692;23.364;2022-12-18T04:06:59;5.27;;;3.37;;
5662;SDS011;2854;42.692;23.364;2022-12-18T04:09:24;4.40;;;3.90;;
5662;SDS011;2854;42.692;23.364;2022-12-18T04:11:51;3.33;;;3.03;;
5662;SDS011;2854;42.692;23.364;2022-12-18T04:14:16;3.77;;;3.57;;
5662;SDS011;2854;42.692;23.364;2022-12-18T04:16:41;3.50;;;3.20;;
5662;SDS011;2854;42.692;23.364;2022-12-18T04:19:07;3.90;;;3.13;;
5662;SDS011;2854;42.692;23.364;2022-12-18T04:21:32;11.70;;;4.33;;
5662;SDS011;2854;42.692;23.364;2022-12-18T04:23:57;5.10;;;2.90;;
5662;SDS011;2854;42.692;23.364;2022-12-18T04:26:22;3.60;;;3.27;;
5662;SDS011;2854;42.692;23.364;2022-12-18T04:28:48;5.00;;;4.10;;
5662;SDS011;2854;42.692;23.364;2022-12-18T04:31:13;4.10;;;3.80;;
5662;SDS011;2854;42.692;23.364;2022-12-18T04:33:38;5.90;;;3.97;;
5662;SDS011;2854;42.692;23.364;2022-12-18T04:36:03;4.73;;;4.23;;
5662;SDS011;2854;42.692;23.364;2022-12-18T04:38:29;6.07;;;3.73;;
5662;SDS011;2854;42.692;23.364;2022-12-18T04:40:54;4.50;;;4.00;;
5662;SDS011;2854;42.692;23.364;2022-12-18T04:43:19;7.00;;;4.10;;
5662;SDS011;2854;42.692;23.364;2022-12-18T04:45:45;5.00;;;4.07;;
5662;SDS011;2854;42.692;23.364;2022-12-18T04:48:11;4.73;;;3.70;;
5662;SDS011;2854;42.692;23.364;2022-12-18T04:50:37;4.50;;;4.00;;
5662;SDS011;2854;42.692;23.364;2022-12-18T04:53:02;7.90;;;5.20;;
5662;SDS011;2854;42.692;23.364;2022-12-18T04:55:27;4.73;;;4.03;;
5662;SDS011;2854;42.692;23.364;2022-12-18T04:57:53;6.97;;;5.30;;
5662;SDS011;2854;42.692;23.364;2022-12-18T05:00:18;9.00;;;4.77;;
5662;SDS011;2854;42.692;23.364;2022-12-18T05:02:44;5.67;;;3.13;;
5662;SDS011;2854;42.692;23.364;2022-12-18T05:05:09;5.87;;;3.83;;
5662;SDS011;2854;42.692;23.364;2022-12-18T05:07:34;5.43;;;3.90;;
5662;SDS011;2854;42.692;23.364;2022-12-18T05:10:00;7.50;;;4.73;;
5662;SDS011;2854;42.692;23.364;2022-12-18T05:12:25;4.87;;;3.63;;
5662;SDS011;2854;42.692;23.364;2022-12-18T05:14:50;9.63;;;4.60;;
5662;SDS011;2854;42.692;23.364;2022-12-18T05:17:15;7.07;;;5.20;;
5662;SDS011;2854;42.692;23.364;2022-12-18T05:19:41;8.23;;;5.30;;
5662;SDS011;2854;42.692;23.364;2022-12-18T05:22:06;7.80;;;5.00;;
5662;SDS011;2854;42.692;23.364;2022-12-18T05:24:32;11.90;;;5.07;;
5662;SDS011;2854;42.692;23.364;2022-12-18T05:26:58;4.90;;;4.17;;
5662;SDS011;2854;42.692;23.364;2022-12-18T05:29:23;9.80;;;6.50;;
5662;SDS011;2854;42.692;23.364;2022-12-18T05:31:48;6.87;;;4.90;;
5662;SDS011;2854;42.692;23.364;2022-12-18T05:34:14;6.20;;;4.27;;
5662;SDS011;2854;42.692;23.364;2022-12-18T05:36:39;6.27;;;4.83;;
5662;SDS011;2854;42.692;23.364;2022-12-18T05:39:04;7.67;;;5.00;;
5662;SDS011;2854;42.692;23.364;2022-12-18T05:41:29;6.97;;;4.23;;
5662;SDS011;2854;42.692;23.364;2022-12-18T05:43:55;6.67;;;4.27;;
5662;SDS011;2854;42.692;23.364;2022-12-18T05:46:20;8.30;;;5.07;;
5662;SDS011;2854;42.692;23.364;2022-12-18T05:48:45;11.80;;;5.50;;
5662;SDS011;2854;42.692;23.364;2022-12-18T05:51:14;6.43;;;5.33;;
5662;SDS011;2854;42.692;23.364;2022-12-18T05:53:40;10.47;;;4.90;;
5662;SDS011;2854;42.692;23.364;2022-12-18T05:56:07;11.30;;;5.17;;
5662;SDS011;2854;42.692;23.364;2022-12-18T05:58:33;5.90;;;5.20;;
5662;SDS011;2854;42.692;23.364;2022-12-18T06:01:05;8.50;;;5.60;;
5662;SDS011;2854;42.692;23.364;2022-12-18T06:03:30;5.27;;;4.40;;
5662;SDS011;2854;42.692;23.364;2022-12-18T06:05:55;9.73;;;5.60;;
5662;SDS011;2854;42.692;23.364;2022-12-18T06:08:21;10.50;;;5.30;;
5662;SDS011;2854;42.692;23.364;2022-12-18T06:10:49;10.43;;;5.70;;
5662;SDS011;2854;42.692;23.364;2022-12-18T06:13:16;11.87;;;5.57;;
5662;SDS011;2854;42.692;23.364;2022-12-18T06:15:41;7.87;;;4.50;;
5662;SDS011;2854;42.692;23.364;2022-12-18T06:18:06;7.63;;;5.20;;
5662;SDS011;2854;42.692;23.364;2022-12-18T06:20:31;6.87;;;5.33;;
5662;SDS011;2854;42.692;23.364;2022-12-18T06:22:57;7.10;;;4.10;;
5662;SDS011;2854;42.692;23.364;2022-12-18T06:25:22;5.63;;;3.90;;
5662;SDS011;2854;42.692;23.364;2022-12-18T06:27:47;5.40;;;4.57;;
5662;SDS011;2854;42.692;23.364;2022-12-18T06:30:14;7.43;;;4.67;;
5662;SDS011;2854;42.692;23.364;2022-12-18T06:32:39;8.00;;;4.80;;
5662;SDS011;2854;42.692;23.364;2022-12-18T06:35:04;7.50;;;4.93;;
5662;SDS011;2854;42.692;23.364;2022-12-18T06:37:30;13.53;;;6.20;;
5662;SDS011;2854;42.692;23.364;2022-12-18T06:39:56;6.07;;;4.27;;
5662;SDS011;2854;42.692;23.364;2022-12-18T06:42:21;8.00;;;5.03;;
5662;SDS011;2854;42.692;23.364;2022-12-18T06:44:47;6.83;;;4.33;;
5662;SDS011;2854;42.692;23.364;2022-12-18T06:47:12;5.10;;;4.30;;
5662;SDS011;2854;42.692;23.364;2022-12-18T06:49:37;11.50;;;6.10;;
5662;SDS011;2854;42.692;23.364;2022-12-18T06:52:03;12.70;;;6.50;;
5662;SDS011;2854;42.692;23.364;2022-12-18T06:54:28;8.87;;;5.20;;
5662;SDS011;2854;42.692;23.364;2022-12-18T06:56:53;5.30;;;4.43;;
5662;SDS011;2854;42.692;23.364;2022-12-18T06:59:20;6.57;;;3.80;;
5662;SDS011;2854;42.692;23.364;2022-12-18T07:01:45;8.33;;;5.10;;
5662;SDS011;2854;42.692;23.364;2022-12-18T07:04:10;8.37;;;4.33;;
5662;SDS011;2854;42.692;23.364;2022-12-18T07:06:36;9.80;;;5.00;;
5662;SDS011;2854;42.692;23.364;2022-12-18T07:09:01;6.33;;;4.47;;
5662;SDS011;2854;42.692;23.364;2022-12-18T07:11:26;8.60;;;4.33;;
5662;SDS011;2854;42.692;23.364;2022-12-18T07:13:52;12.47;;;5.93;;
5662;SDS011;2854;42.692;23.364;2022-12-18T07:16:18;6.40;;;4.40;;
5662;SDS011;2854;42.692;23.364;2022-12-18T07:18:44;11.70;;;5.73;;
5662;SDS011;2854;42.692;23.364;2022-12-18T07:21:10;11.30;;;5.57;;
5662;SDS011;2854;42.692;23.364;2022-12-18T07:23:36;8.73;;;5.30;;
5662;SDS011;2854;42.692;23.364;2022-12-18T07:26:05;8.80;;;6.10;;
5662;SDS011;2854;42.692;23.364;2022-12-18T07:28:32;7.63;;;4.53;;
5662;SDS011;2854;42.692;23.364;2022-12-18T07:30:57;10.37;;;5.50;;
5662;SDS011;2854;42.692;23.364;2022-12-18T07:33:23;3.50;;;3.20;;
5662;SDS011;2854;42.692;23.364;2022-12-18T07:35:49;10.77;;;5.60;;
5662;SDS011;2854;42.692;23.364;2022-12-18T07:38:14;17.17;;;5.53;;
5662;SDS011;2854;42.692;23.364;2022-12-18T07:40:39;11.13;;;6.13;;
5662;SDS011;2854;42.692;23.364;2022-12-18T07:43:04;6.77;;;4.77;;
5662;SDS011;2854;42.692;23.364;2022-12-18T07:45:30;9.50;;;5.53;;
5662;SDS011;2854;42.692;23.364;2022-12-18T07:47:55;9.40;;;5.80;;
5662;SDS011;2854;42.692;23.364;2022-12-18T07:50:20;8.83;;;5.60;;
5662;SDS011;2854;42.692;23.364;2022-12-18T07:52:45;9.97;;;5.80;;
5662;SDS011;2854;42.692;23.364;2022-12-18T07:55:11;11.33;;;6.27;;
5662;SDS011;2854;42.692;23.364;2022-12-18T07:57:36;12.67;;;6.40;;
5662;SDS011;2854;42.692;23.364;2022-12-18T08:00:02;9.80;;;7.30;;
5662;SDS011;2854;42.692;23.364;2022-12-18T08:02:30;12.20;;;6.07;;
5662;SDS011;2854;42.692;23.364;2022-12-18T08:04:55;6.43;;;5.10;;
5662;SDS011;2854;42.692;23.364;2022-12-18T08:07:20;12.37;;;6.60;;
5662;SDS011;2854;42.692;23.364;2022-12-18T08:09:45;8.47;;;5.53;;
5662;SDS011;2854;42.692;23.364;2022-12-18T08:12:11;12.00;;;6.93;;
5662;SDS011;2854;42.692;23.364;2022-12-18T08:14:38;8.87;;;5.20;;
5662;SDS011;2854;42.692;23.364;2022-12-18T08:17:04;6.77;;;4.70;;
5662;SDS011;2854;42.692;23.364;2022-12-18T08:19:29;11.73;;;6.00;;
5662;SDS011;2854;42.692;23.364;2022-12-18T08:21:55;9.80;;;5.27;;
5662;SDS011;2854;42.692;23.364;2022-12-18T08:24:20;9.33;;;4.80;;
5662;SDS011;2854;42.692;23.364;2022-12-18T08:26:45;12.47;;;6.57;;
5662;SDS011;2854;42.692;23.364;2022-12-18T08:29:10;10.43;;;5.57;;
5662;SDS011;2854;42.692;23.364;2022-12-18T08:31:36;7.33;;;5.03;;
5662;SDS011;2854;42.692;23.364;2022-12-18T08:34:01;13.03;;;6.67;;
5662;SDS011;2854;42.692;23.364;2022-12-18T08:36:26;7.83;;;4.33;;
5662;SDS011;2854;42.692;23.364;2022-12-18T08:38:52;15.50;;;6.40;;
5662;SDS011;2854;42.692;23.364;2022-12-18T08:41:17;9.93;;;5.67;;
5662;SDS011;2854;42.692;23.364;2022-12-18T08:43:44;11.70;;;5.70;;
5662;SDS011;2854;42.692;23.364;2022-12-18T08:46:31;8.43;;;5.10;;
5662;SDS011;2854;42.692;23.364;2022-12-18T08:48:57;6.97;;;4.30;;
5662;SDS011;2854;42.692;23.364;2022-12-18T08:51:22;10.03;;;5.83;;
5662;SDS011;2854;42.692;23.364;2022-12-18T08:53:48;6.07;;;5.00;;
5662;SDS011;2854;42.692;23.364;2022-12-18T08:56:13;14.60;;;6.53;;
5662;SDS011;2854;42.692;23.364;2022-12-18T08:58:39;7.53;;;5.57;;
5662;SDS011;2854;42.692;23.364;2022-12-18T09:01:04;9.00;;;5.80;;
5662;SDS011;2854;42.692;23.364;2022-12-18T09:03:30;11.47;;;6.87;;
5662;SDS011;2854;42.692;23.364;2022-12-18T09:05:55;8.90;;;6.13;;
5662;SDS011;2854;42.692;23.364;2022-12-18T09:08:20;9.37;;;5.43;;
5662;SDS011;2854;42.692;23.364;2022-12-18T09:10:47;9.47;;;4.90;;
5662;SDS011;2854;42.692;23.364;2022-12-18T09:13:13;11.53;;;6.00;;
5662;SDS011;2854;42.692;23.364;2022-12-18T09:15:43;10.57;;;6.53;;
5662;SDS011;2854;42.692;23.364;2022-12-18T09:18:10;7.50;;;5.30;;
5662;SDS011;2854;42.692;23.364;2022-12-18T09:20:35;6.77;;;5.07;;
5662;SDS011;2854;42.692;23.364;2022-12-18T09:23:01;8.57;;;5.83;;
5662;SDS011;2854;42.692;23.364;2022-12-18T09:25:26;15.47;;;7.00;;
5662;SDS011;2854;42.692;23.364;2022-12-18T09:27:56;8.30;;;4.47;;
5662;SDS011;2854;42.692;23.364;2022-12-18T09:30:22;9.80;;;6.83;;
5662;SDS011;2854;42.692;23.364;2022-12-18T09:32:47;9.60;;;5.73;;
5662;SDS011;2854;42.692;23.364;2022-12-18T09:35:12;8.20;;;5.07;;
5662;SDS011;2854;42.692;23.364;2022-12-18T09:37:37;14.10;;;5.10;;
5662;SDS011;2854;42.692;23.364;2022-12-18T09:40:03;13.20;;;6.90;;
5662;SDS011;2854;42.692;23.364;2022-12-18T09:42:28;10.77;;;6.80;;
5662;SDS011;2854;42.692;23.364;2022-12-18T09:44:54;6.50;;;5.80;;
5662;SDS011;2854;42.692;23.364;2022-12-18T09:47:22;10.67;;;6.00;;
5662;SDS011;2854;42.692;23.364;2022-12-18T09:49:49;9.00;;;5.70;;
5662;SDS011;2854;42.692;23.364;2022-12-18T09:54:42;8.83;;;5.23;;
5662;SDS011;2854;42.692;23.364;2022-12-18T09:57:31;15.40;;;5.23;;
5662;SDS011;2854;42.692;23.364;2022-12-18T09:59:56;8.07;;;5.80;;
5662;SDS011;2854;42.692;23.364;2022-12-18T10:02:23;8.80;;;4.50;;
5662;SDS011;2854;42.692;23.364;2022-12-18T10:05:09;16.83;;;5.20;;
5662;SDS011;2854;42.692;23.364;2022-12-18T10:10:07;9.87;;;5.80;;
5662;SDS011;2854;42.692;23.364;2022-12-18T10:12:41;8.50;;;5.43;;
5662;SDS011;2854;42.692;23.364;2022-12-18T10:20:23;8.17;;;5.00;;
5662;SDS011;2854;42.692;23.364;2022-12-18T10:28:00;10.50;;;5.33;;
5662;SDS011;2854;42.692;23.364;2022-12-18T10:30:29;7.80;;;4.70;;
5662;SDS011;2854;42.692;23.364;2022-12-18T10:32:58;7.53;;;4.57;;
5662;SDS011;2854;42.692;23.364;2022-12-18T10:35:25;4.03;;;3.60;;
5662;SDS011;2854;42.692;23.364;2022-12-18T10:40:29;9.00;;;5.60;;
5662;SDS011;2854;42.692;23.364;2022-12-18T10:43:04;7.43;;;4.73;;
5662;SDS011;2854;42.692;23.364;2022-12-18T10:45:30;6.07;;;3.90;;
5662;SDS011;2854;42.692;23.364;2022-12-18T10:47:55;5.77;;;5.20;;
5662;SDS011;2854;42.692;23.364;2022-12-18T10:52:55;9.63;;;5.30;;
5662;SDS011;2854;42.692;23.364;2022-12-18T10:55:22;10.67;;;6.60;;
5662;SDS011;2854;42.692;23.364;2022-12-18T10:57:47;5.17;;;4.67;;
5662;SDS011;2854;42.692;23.364;2022-12-18T11:02:50;14.60;;;5.80;;
5662;SDS011;2854;42.692;23.364;2022-12-18T11:05:26;4.73;;;4.17;;
5662;SDS011;2854;42.692;23.364;2022-12-18T11:07:52;6.80;;;4.67;;
5662;SDS011;2854;42.692;23.364;2022-12-18T11:10:20;11.87;;;6.10;;
5662;SDS011;2854;42.692;23.364;2022-12-18T11:12:45;14.03;;;7.13;;
5662;SDS011;2854;42.692;23.364;2022-12-18T11:15:15;11.67;;;5.80;;
5662;SDS011;2854;42.692;23.364;2022-12-18T11:17:41;7.90;;;4.80;;
5662;SDS011;2854;42.692;23.364;2022-12-18T11:20:18;5.43;;;4.17;;
5662;SDS011;2854;42.692;23.364;2022-12-18T11:22:45;9.23;;;5.13;;
5662;SDS011;2854;42.692;23.364;2022-12-18T11:25:19;6.23;;;5.00;;
5662;SDS011;2854;42.692;23.364;2022-12-18T11:28:03;9.67;;;5.33;;
5662;SDS011;2854;42.692;23.364;2022-12-18T11:30:36;12.80;;;5.50;;
5662;SDS011;2854;42.692;23.364;2022-12-18T11:33:03;10.73;;;6.20;;
5662;SDS011;2854;42.692;23.364;2022-12-18T11:35:39;7.00;;;5.03;;
5662;SDS011;2854;42.692;23.364;2022-12-18T11:38:23;19.90;;;6.93;;
5662;SDS011;2854;42.692;23.364;2022-12-18T11:41:04;11.20;;;5.13;;
5662;SDS011;2854;42.692;23.364;2022-12-18T11:46:00;9.17;;;4.80;;
5662;SDS011;2854;42.692;23.364;2022-12-18T11:48:28;8.30;;;5.13;;
5662;SDS011;2854;42.692;23.364;2022-12-18T11:50:56;8.40;;;4.97;;
5662;SDS011;2854;42.692;23.364;2022-12-18T11:53:22;20.03;;;6.07;;
5662;SDS011;2854;42.692;23.364;2022-12-18T11:58:53;10.03;;;4.87;;
5662;SDS011;2854;42.692;23.364;2022-12-18T12:06:40;13.83;;;5.10;;
5662;SDS011;2854;42.692;23.364;2022-12-18T12:09:22;9.63;;;4.90;;
5662;SDS011;2854;42.692;23.364;2022-12-18T12:12:10;6.37;;;4.23;;
5662;SDS011;2854;42.692;23.364;2022-12-18T12:14:50;10.63;;;5.80;;
5662;SDS011;2854;42.692;23.364;2022-12-18T12:22:35;10.97;;;6.60;;
5662;SDS011;2854;42.692;23.364;2022-12-18T12:30:20;6.80;;;4.83;;
5662;SDS011;2854;42.692;23.364;2022-12-18T12:40:06;10.23;;;5.70;;
5662;SDS011;2854;42.692;23.364;2022-12-18T12:42:41;11.53;;;6.53;;
5662;SDS011;2854;42.692;23.364;2022-12-18T12:45:30;5.67;;;4.73;;
5662;SDS011;2854;42.692;23.364;2022-12-18T12:47:58;6.47;;;4.70;;
5662;SDS011;2854;42.692;23.364;2022-12-18T12:50:24;10.30;;;6.13;;
5662;SDS011;2854;42.692;23.364;2022-12-18T12:52:52;12.40;;;6.33;;
5662;SDS011;2854;42.692;23.364;2022-12-18T12:55:22;11.90;;;4.93;;
5662;SDS011;2854;42.692;23.364;2022-12-18T12:57:51;6.90;;;5.07;;
5662;SDS011;2854;42.692;23.364;2022-12-18T13:00:20;8.70;;;5.03;;
5662;SDS011;2854;42.692;23.364;2022-12-18T13:05:23;11.70;;;6.03;;
5662;SDS011;2854;42.692;23.364;2022-12-18T13:08:00;13.73;;;6.13;;
5662;SDS011;2854;42.692;23.364;2022-12-18T13:10:31;12.47;;;5.80;;
5662;SDS011;2854;42.692;23.364;2022-12-18T13:12:58;10.20;;;6.10;;
5662;SDS011;2854;42.692;23.364;2022-12-18T13:17:53;13.50;;;6.53;;
5662;SDS011;2854;42.692;23.364;2022-12-18T13:20:32;10.53;;;6.20;;
5662;SDS011;2854;42.692;23.364;2022-12-18T13:22:58;13.17;;;7.07;;
5662;SDS011;2854;42.692;23.364;2022-12-18T13:27:57;11.80;;;6.67;;
5662;SDS011;2854;42.692;23.364;2022-12-18T13:30:41;11.20;;;5.40;;
5662;SDS011;2854;42.692;23.364;2022-12-18T13:38:22;11.23;;;6.27;;
5662;SDS011;2854;42.692;23.364;2022-12-18T13:48:19;14.07;;;6.10;;
5662;SDS011;2854;42.692;23.364;2022-12-18T13:50:49;9.87;;;6.03;;
5662;SDS011;2854;42.692;23.364;2022-12-18T13:53:21;12.10;;;5.50;;
5662;SDS011;2854;42.692;23.364;2022-12-18T13:55:48;12.07;;;4.87;;
5662;SDS011;2854;42.692;23.364;2022-12-18T13:58:14;6.90;;;5.10;;
5662;SDS011;2854;42.692;23.364;2022-12-18T14:00:42;6.33;;;4.77;;
5662;SDS011;2854;42.692;23.364;2022-12-18T14:03:16;8.87;;;5.70;;
5662;SDS011;2854;42.692;23.364;2022-12-18T14:05:43;8.03;;;5.53;;
5662;SDS011;2854;42.692;23.364;2022-12-18T14:08:11;9.73;;;5.80;;
5662;SDS011;2854;42.692;23.364;2022-12-18T14:10:41;8.10;;;5.07;;
5662;SDS011;2854;42.692;23.364;2022-12-18T14:13:06;7.53;;;5.30;;
5662;SDS011;2854;42.692;23.364;2022-12-18T14:15:39;8.50;;;5.17;;
5662;SDS011;2854;42.692;23.364;2022-12-18T14:20:43;9.30;;;5.70;;
5662;SDS011;2854;42.692;23.364;2022-12-18T14:25:53;13.83;;;5.50;;
5662;SDS011;2854;42.692;23.364;2022-12-18T14:28:18;7.33;;;4.47;;
5662;SDS011;2854;42.692;23.364;2022-12-18T14:30:44;14.03;;;7.40;;
5662;SDS011;2854;42.692;23.364;2022-12-18T14:35:36;9.27;;;5.30;;
5662;SDS011;2854;42.692;23.364;2022-12-18T14:40:53;7.83;;;4.53;;
5662;SDS011;2854;42.692;23.364;2022-12-18T14:43:19;8.00;;;5.33;;
5662;SDS011;2854;42.692;23.364;2022-12-18T14:45:44;4.50;;;4.00;;
5662;SDS011;2854;42.692;23.364;2022-12-18T14:50:36;5.83;;;4.70;;
5662;SDS011;2854;42.692;23.364;2022-12-18T14:53:01;6.67;;;4.50;;
5662;SDS011;2854;42.692;23.364;2022-12-18T14:55:26;7.87;;;3.77;;
5662;SDS011;2854;42.692;23.364;2022-12-18T14:57:52;10.20;;;4.50;;
5662;SDS011;2854;42.692;23.364;2022-12-18T15:00:20;6.87;;;4.83;;
5662;SDS011;2854;42.692;23.364;2022-12-18T15:02:50;8.10;;;5.70;;
5662;SDS011;2854;42.692;23.364;2022-12-18T15:05:27;7.27;;;4.53;;
5662;SDS011;2854;42.692;23.364;2022-12-18T15:07:54;9.63;;;6.30;;
5662;SDS011;2854;42.692;23.364;2022-12-18T15:10:20;8.83;;;4.70;;
5662;SDS011;2854;42.692;23.364;2022-12-18T15:17:58;17.17;;;5.77;;
5662;SDS011;2854;42.692;23.364;2022-12-18T15:20:24;8.90;;;5.70;;
5662;SDS011;2854;42.692;23.364;2022-12-18T15:22:49;9.70;;;5.40;;
5662;SDS011;2854;42.692;23.364;2022-12-18T15:25:28;7.30;;;5.10;;
5662;SDS011;2854;42.692;23.364;2022-12-18T15:27:56;8.33;;;5.50;;
5662;SDS011;2854;42.692;23.364;2022-12-18T15:30:22;11.67;;;6.37;;
5662;SDS011;2854;42.692;23.364;2022-12-18T15:32:48;5.37;;;4.13;;
5662;SDS011;2854;42.692;23.364;2022-12-18T15:35:24;8.83;;;5.17;;
5662;SDS011;2854;42.692;23.364;2022-12-18T15:37:50;8.50;;;5.27;;
5662;SDS011;2854;42.692;23.364;2022-12-18T15:40:16;10.60;;;6.03;;
5662;SDS011;2854;42.692;23.364;2022-12-18T15:42:42;11.00;;;6.03;;
5662;SDS011;2854;42.692;23.364;2022-12-18T15:45:26;5.70;;;5.20;;
5662;SDS011;2854;42.692;23.364;2022-12-18T15:47:51;8.77;;;4.80;;
5662;SDS011;2854;42.692;23.364;2022-12-18T15:50:17;7.50;;;4.37;;
5662;SDS011;2854;42.692;23.364;2022-12-18T15:52:46;8.60;;;5.80;;
5662;SDS011;2854;42.692;23.364;2022-12-18T15:55:22;7.20;;;5.07;;
5662;SDS011;2854;42.692;23.364;2022-12-18T15:58:07;7.10;;;4.20;;
5662;SDS011;2854;42.692;23.364;2022-12-18T16:00:33;7.13;;;5.17;;
5662;SDS011;2854;42.692;23.364;2022-12-18T16:02:59;9.00;;;5.77;;
5662;SDS011;2854;42.692;23.364;2022-12-18T16:05:24;10.30;;;5.10;;
5662;SDS011;2854;42.692;23.364;2022-12-18T16:07:51;6.57;;;5.77;;
5662;SDS011;2854;42.692;23.364;2022-12-18T16:10:16;6.70;;;4.97;;
5662;SDS011;2854;42.692;23.364;2022-12-18T16:12:41;6.50;;;5.07;;
5662;SDS011;2854;42.692;23.364;2022-12-18T16:15:07;11.40;;;5.27;;
5662;SDS011;2854;42.692;23.364;2022-12-18T16:17:33;10.50;;;5.63;;
5662;SDS011;2854;42.692;23.364;2022-12-18T16:19:58;11.13;;;5.57;;
5662;SDS011;2854;42.692;23.364;2022-12-18T16:22:24;9.93;;;5.97;;
5662;SDS011;2854;42.692;23.364;2022-12-18T16:24:51;6.33;;;3.97;;
5662;SDS011;2854;42.692;23.364;2022-12-18T16:27:16;9.50;;;5.17;;
5662;SDS011;2854;42.692;23.364;2022-12-18T16:29:41;6.70;;;5.63;;
5662;SDS011;2854;42.692;23.364;2022-12-18T16:32:08;12.23;;;5.00;;
5662;SDS011;2854;42.692;23.364;2022-12-18T16:34:36;8.10;;;5.10;;
5662;SDS011;2854;42.692;23.364;2022-12-18T16:37:03;8.60;;;6.37;;
5662;SDS011;2854;42.692;23.364;2022-12-18T16:39:28;8.23;;;5.53;;
5662;SDS011;2854;42.692;23.364;2022-12-18T16:41:55;8.00;;;4.97;;
5662;SDS011;2854;42.692;23.364;2022-12-18T16:44:20;6.67;;;4.80;;
5662;SDS011;2854;42.692;23.364;2022-12-18T16:46:45;7.70;;;5.50;;
5662;SDS011;2854;42.692;23.364;2022-12-18T16:49:15;10.30;;;5.17;;
5662;SDS011;2854;42.692;23.364;2022-12-18T16:51:41;8.10;;;4.87;;
5662;SDS011;2854;42.692;23.364;2022-12-18T16:54:07;11.80;;;6.63;;
5662;SDS011;2854;42.692;23.364;2022-12-18T16:56:32;11.70;;;5.97;;
5662;SDS011;2854;42.692;23.364;2022-12-18T16:58:58;9.70;;;4.60;;
5662;SDS011;2854;42.692;23.364;2022-12-18T17:01:24;8.40;;;5.23;;